createdAt,value
2023-05-13T00:02:23.007Z,100.00
2023-05-13T00:04:49.784Z,100.00
2023-05-13T00:07:16.473Z,100.00
2023-05-13T00:09:43.316Z,100.00
2023-05-13T00:12:10.026Z,100.00
2023-05-13T00:14:37.475Z,100.00
2023-05-13T00:17:05.131Z,100.00
2023-05-13T00:19:32.161Z,100.00
2023-05-13T00:21:58.890Z,100.00
2023-05-13T00:24:26.076Z,100.00
2023-05-13T00:26:52.807Z,100.00
2023-05-13T00:29:19.790Z,100.00
2023-05-13T00:31:46.479Z,100.00
2023-05-13T00:34:13.281Z,100.00
2023-05-13T00:36:39.981Z,100.00
2023-05-13T00:39:06.850Z,100.00
2023-05-13T00:41:33.525Z,100.00
2023-05-13T00:44:00.298Z,100.00
2023-05-13T00:46:31.512Z,100.00
2023-05-13T00:48:59.234Z,100.00
2023-05-13T00:51:26.283Z,100.00
2023-05-13T00:53:53.303Z,100.00
2023-05-13T00:56:23.958Z,100.00
2023-05-13T00:58:50.670Z,100.00
2023-05-13T01:01:45.603Z,100.00
2023-05-13T01:04:27.816Z,100.00
2023-05-13T01:07:21.066Z,100.00
2023-05-13T01:10:22.906Z,100.00
2023-05-13T01:12:54.355Z,100.00
2023-05-13T01:15:25.913Z,100.00
2023-05-13T01:18:07.512Z,100.00
2023-05-13T01:20:35.257Z,100.00
2023-05-13T01:23:04.335Z,100.00
2023-05-13T01:25:31.466Z,100.00
2023-05-13T01:27:58.377Z,100.00
2023-05-13T01:30:25.182Z,100.00
2023-05-13T01:32:52.379Z,100.00
2023-05-13T01:35:19.899Z,100.00
2023-05-13T01:37:47.606Z,100.00
2023-05-13T01:40:28.152Z,100.00
2023-05-13T01:42:59.120Z,100.00
2023-05-13T01:45:28.445Z,100.00
2023-05-13T01:47:55.171Z,100.00
2023-05-13T01:50:22.492Z,100.00
2023-05-13T01:52:49.392Z,100.00
2023-05-13T01:55:16.259Z,100.00
2023-05-13T01:57:43.003Z,100.00
2023-05-13T02:00:10.949Z,100.00
2023-05-13T02:02:37.706Z,100.00
2023-05-13T02:05:04.751Z,100.00
2023-05-13T02:07:31.695Z,100.00
2023-05-13T02:10:00.112Z,100.00
2023-05-13T02:12:27.470Z,100.00
2023-05-13T02:14:57.452Z,100.00
2023-05-13T02:17:24.142Z,100.00
2023-05-13T02:19:50.932Z,100.00
2023-05-13T02:22:17.627Z,100.00
2023-05-13T02:24:44.356Z,100.00
2023-05-13T02:27:13.076Z,100.00
2023-05-13T02:29:39.991Z,100.00
2023-05-13T02:32:07.188Z,100.00
2023-05-13T02:34:34.134Z,100.00
2023-05-13T02:37:00.818Z,100.00
2023-05-13T02:39:27.524Z,100.00
2023-05-13T02:41:54.202Z,100.00
2023-05-13T02:44:21.020Z,100.00
2023-05-13T02:46:47.734Z,100.00
2023-05-13T02:49:14.720Z,100.00
2023-05-13T02:51:41.472Z,100.00
2023-05-13T02:54:08.236Z,100.00
2023-05-13T02:56:34.914Z,100.00
2023-05-13T02:59:01.777Z,100.00
2023-05-13T03:01:28.619Z,100.00
2023-05-13T03:03:55.693Z,100.00
2023-05-13T03:06:22.395Z,100.00
2023-05-13T03:08:49.103Z,100.00
2023-05-13T03:11:16.085Z,100.00
2023-05-13T03:13:42.739Z,100.00
2023-05-13T03:16:10.009Z,100.00
2023-05-13T03:18:36.809Z,100.00
2023-05-13T03:21:03.560Z,100.00
2023-05-13T03:23:30.526Z,100.00
2023-05-13T03:25:57.331Z,100.00
2023-05-13T03:28:24.071Z,100.00
2023-05-13T03:30:51.482Z,100.00
2023-05-13T03:33:18.478Z,100.00
2023-05-13T03:35:46.006Z,100.00
2023-05-13T03:38:12.996Z,100.00
2023-05-13T03:40:39.891Z,100.00
2023-05-13T03:43:06.604Z,100.00
2023-05-13T03:45:33.289Z,100.00
2023-05-13T03:48:00.041Z,100.00
2023-05-13T03:50:26.898Z,100.00
2023-05-13T03:52:53.661Z,100.00
2023-05-13T03:55:20.903Z,100.00
2023-05-13T03:57:51.183Z,100.00
2023-05-13T04:00:18.045Z,100.00
2023-05-13T04:02:44.917Z,100.00
2023-05-13T04:05:14.169Z,100.00
2023-05-13T04:07:41.628Z,100.00
2023-05-13T04:10:09.273Z,100.00
2023-05-13T04:12:36.104Z,100.00
2023-05-13T04:15:03.093Z,100.00
2023-05-13T04:17:29.892Z,100.00
2023-05-13T04:19:56.792Z,100.00
2023-05-13T04:22:24.789Z,100.00
2023-05-13T04:24:56.774Z,100.00
2023-05-13T04:27:24.707Z,100.00
2023-05-13T04:29:51.590Z,100.00
2023-05-13T04:32:22.310Z,100.00
2023-05-13T04:34:49.598Z,100.00
2023-05-13T04:37:16.581Z,100.00
2023-05-13T04:39:45.537Z,100.00
2023-05-13T04:42:12.987Z,100.00
2023-05-13T04:44:39.752Z,100.00
2023-05-13T04:47:07.159Z,100.00
2023-05-13T04:49:33.987Z,100.00
2023-05-13T04:52:02.284Z,100.00
2023-05-13T04:54:29.076Z,100.00
2023-05-13T04:56:56.155Z,100.00
2023-05-13T04:59:23.170Z,100.00
2023-05-13T05:01:50.070Z,100.00
2023-05-13T05:04:16.926Z,100.00
2023-05-13T05:06:46.564Z,100.00
2023-05-13T05:09:13.276Z,100.00
2023-05-13T05:11:40.142Z,100.00
2023-05-13T05:14:07.043Z,100.00
2023-05-13T05:16:33.808Z,100.00
2023-05-13T05:19:00.633Z,100.00
2023-05-13T05:21:27.407Z,100.00
2023-05-13T05:23:54.176Z,100.00
2023-05-13T05:26:20.993Z,100.00
2023-05-13T05:28:47.785Z,100.00
2023-05-13T05:31:14.971Z,100.00
2023-05-13T05:33:42.373Z,100.00
2023-05-13T05:36:09.409Z,100.00
2023-05-13T05:38:36.241Z,100.00
2023-05-13T05:41:03.091Z,100.00
2023-05-13T05:43:29.882Z,100.00
2023-05-13T05:45:56.746Z,100.00
2023-05-13T05:48:23.589Z,100.00
2023-05-13T05:50:50.380Z,100.00
2023-05-13T05:53:17.203Z,100.00
2023-05-13T05:55:44.218Z,100.00
2023-05-13T05:58:15.130Z,100.00
2023-05-13T06:00:42.223Z,100.00
2023-05-13T06:03:09.073Z,100.00
2023-05-13T06:05:36.622Z,100.00
2023-05-13T06:08:03.714Z,100.00
2023-05-13T06:10:30.473Z,100.00
2023-05-13T06:12:57.225Z,100.00
2023-05-13T06:15:24.125Z,100.00
2023-05-13T06:17:51.246Z,100.00
2023-05-13T06:20:18.668Z,100.00
2023-05-13T06:22:45.552Z,100.00
2023-05-13T06:25:12.591Z,100.00
2023-05-13T06:27:39.717Z,100.00
2023-05-13T06:30:07.277Z,100.00
2023-05-13T06:32:34.119Z,100.00
2023-05-13T06:35:01.148Z,100.00
2023-05-13T06:37:28.129Z,100.00
2023-05-13T06:39:54.948Z,100.00
2023-05-13T06:42:21.921Z,100.00
2023-05-13T06:44:48.658Z,100.00
2023-05-13T06:47:16.582Z,100.00
2023-05-13T06:49:43.665Z,100.00
2023-05-13T06:52:10.930Z,100.00
2023-05-13T06:54:37.649Z,100.00
2023-05-13T06:57:07.837Z,100.00
2023-05-13T06:59:35.946Z,100.00
2023-05-13T07:02:02.669Z,100.00
2023-05-13T07:04:30.607Z,100.00
2023-05-13T07:06:57.719Z,100.00
2023-05-13T07:09:24.531Z,100.00
2023-05-13T07:11:51.307Z,100.00
2023-05-13T07:14:18.072Z,100.00
2023-05-13T07:16:45.006Z,100.00
2023-05-13T07:19:11.751Z,100.00
2023-05-13T07:21:38.979Z,100.00
2023-05-13T07:24:05.854Z,100.00
2023-05-13T07:26:32.940Z,100.00
2023-05-13T07:29:00.012Z,100.00
2023-05-13T07:31:27.247Z,100.00
2023-05-13T07:33:54.267Z,100.00
2023-05-13T07:36:21.141Z,100.00
2023-05-13T07:38:47.800Z,100.00
2023-05-13T07:41:14.698Z,100.00
2023-05-13T07:43:41.470Z,100.00
2023-05-13T07:46:08.868Z,100.00
2023-05-13T07:48:35.900Z,100.00
2023-05-13T07:51:02.813Z,100.00
2023-05-13T07:53:29.547Z,100.00
2023-05-13T07:55:56.595Z,100.00
2023-05-13T07:58:23.738Z,100.00
2023-05-13T08:00:50.757Z,100.00
2023-05-13T08:03:17.572Z,100.00
2023-05-13T08:05:44.608Z,97.94
2023-05-13T08:08:12.167Z,95.95
2023-05-13T08:10:39.274Z,95.14
2023-05-13T08:13:06.236Z,91.93
2023-05-13T08:15:33.048Z,93.38
2023-05-13T08:18:00.062Z,94.06
2023-05-13T08:20:30.223Z,88.74
2023-05-13T08:22:58.695Z,90.00
2023-05-13T08:25:25.692Z,91.26
2023-05-13T08:27:52.541Z,90.31
2023-05-13T08:30:19.421Z,91.78
2023-05-13T08:32:46.336Z,89.49
2023-05-13T08:35:13.329Z,89.43
2023-05-13T08:37:40.478Z,84.67
2023-05-13T08:40:08.681Z,82.07
2023-05-13T08:42:39.982Z,78.29
2023-05-13T08:45:09.028Z,79.07
2023-05-13T08:47:57.164Z,78.15
2023-05-13T08:50:24.163Z,80.27
2023-05-13T08:52:53.766Z,75.56
2023-05-13T08:55:21.077Z,76.80
2023-05-13T08:57:48.261Z,79.29
2023-05-13T09:00:15.443Z,76.82
2023-05-13T09:02:42.949Z,74.69
2023-05-13T09:05:10.278Z,73.36
2023-05-13T09:07:38.299Z,73.47
2023-05-13T09:10:08.543Z,75.11
2023-05-13T09:12:55.250Z,72.83
2023-05-13T09:15:26.784Z,71.30
2023-05-13T09:18:02.066Z,68.84
2023-05-13T09:20:29.361Z,69.73
2023-05-13T09:22:58.144Z,67.43
2023-05-13T09:25:25.528Z,68.78
2023-05-13T09:27:59.206Z,70.85
2023-05-13T09:30:27.330Z,67.95
2023-05-13T09:33:22.898Z,63.66
2023-05-13T09:35:53.242Z,63.62
2023-05-13T09:38:22.474Z,65.79
2023-05-13T09:41:07.338Z,65.13
2023-05-13T09:43:34.806Z,64.47
2023-05-13T09:46:04.053Z,64.40
2023-05-13T09:48:32.853Z,62.52
2023-05-13T09:51:00.029Z,60.59
2023-05-13T09:53:27.592Z,61.44
2023-05-13T09:55:56.236Z,59.64
2023-05-13T09:58:24.644Z,57.36
2023-05-13T10:00:52.434Z,59.30
2023-05-13T10:03:19.637Z,58.31
2023-05-13T10:05:46.801Z,58.15
2023-05-13T10:08:15.029Z,58.74
2023-05-13T10:10:42.732Z,56.46
2023-05-13T10:13:13.513Z,57.04
2023-05-13T10:15:56.425Z,57.08
2023-05-13T10:18:48.632Z,56.49
2023-05-13T10:21:20.776Z,55.19
2023-05-13T10:23:48.038Z,57.20
2023-05-13T10:26:14.877Z,56.44
2023-05-13T10:28:43.836Z,57.10
2023-05-13T10:31:10.607Z,57.71
2023-05-13T10:33:37.348Z,54.83
2023-05-13T10:36:55.239Z,55.08
2023-05-13T10:39:42.426Z,53.48
2023-05-13T10:42:26.000Z,53.24
2023-05-13T10:44:55.630Z,52.29
2023-05-13T10:47:22.472Z,54.21
2023-05-13T10:49:54.090Z,54.75
2023-05-13T10:52:21.390Z,54.30
2023-05-13T10:55:04.467Z,55.57
2023-05-13T10:57:38.021Z,56.39
2023-05-13T11:00:19.465Z,55.89
2023-05-13T11:02:46.443Z,52.48
2023-05-13T11:05:22.384Z,53.13
2023-05-13T11:07:58.675Z,49.15
2023-05-13T11:10:32.316Z,49.62
2023-05-13T11:13:37.730Z,52.52
2023-05-13T11:16:06.654Z,53.54
2023-05-13T11:18:35.299Z,55.38
2023-05-13T11:21:05.410Z,50.21
2023-05-13T11:23:52.814Z,48.86
2023-05-13T11:26:21.587Z,47.52
2023-05-13T11:28:55.255Z,49.30
2023-05-13T11:31:23.002Z,49.07
2023-05-13T11:34:12.763Z,47.84
2023-05-13T11:36:41.440Z,48.50
2023-05-13T11:39:11.547Z,48.65
2023-05-13T11:41:41.769Z,47.75
2023-05-13T11:44:08.777Z,48.62
2023-05-13T11:46:36.552Z,49.63
2023-05-13T11:49:05.837Z,49.07
2023-05-13T11:51:34.295Z,47.79
2023-05-13T11:54:02.897Z,48.02
2023-05-13T11:56:30.502Z,49.84
2023-05-13T11:59:14.729Z,48.98
2023-05-13T12:01:41.570Z,49.09
2023-05-13T12:04:08.922Z,49.21
2023-05-13T12:06:36.230Z,48.74
2023-05-13T12:09:07.152Z,50.03
2023-05-13T12:11:34.284Z,47.29
2023-05-13T12:14:01.618Z,45.69
2023-05-13T12:16:28.677Z,49.10
2023-05-13T12:19:06.748Z,47.96
2023-05-13T12:21:34.846Z,49.55
2023-05-13T12:24:01.760Z,47.99
2023-05-13T12:26:28.568Z,47.97
2023-05-13T12:28:59.807Z,48.33
2023-05-13T12:31:26.861Z,47.42
2023-05-13T12:33:53.749Z,45.53
2023-05-13T12:36:26.350Z,45.85
2023-05-13T12:39:07.451Z,44.38
2023-05-13T12:41:36.303Z,44.46
2023-05-13T12:44:06.861Z,47.09
2023-05-13T12:46:35.007Z,47.55
2023-05-13T12:49:04.386Z,45.41
2023-05-13T12:51:31.198Z,46.28
2023-05-13T12:53:58.774Z,44.62
2023-05-13T12:56:26.250Z,45.74
2023-05-13T12:58:54.289Z,44.91
2023-05-13T13:01:21.364Z,47.77
2023-05-13T13:03:48.261Z,45.09
2023-05-13T13:06:15.398Z,44.26
2023-05-13T13:08:42.684Z,44.47
2023-05-13T13:11:09.598Z,46.18
2023-05-13T13:13:38.963Z,45.71
2023-05-13T13:16:06.686Z,45.50
2023-05-13T13:18:33.553Z,43.62
2023-05-13T13:21:00.290Z,44.78
2023-05-13T13:23:27.120Z,44.84
2023-05-13T13:25:54.031Z,44.75
2023-05-13T13:28:20.798Z,44.39
2023-05-13T13:30:47.692Z,44.01
2023-05-13T13:33:16.212Z,43.61
2023-05-13T13:35:47.421Z,44.21
2023-05-13T13:38:14.551Z,44.27
2023-05-13T13:40:41.448Z,42.19
2023-05-13T13:43:08.612Z,42.78
2023-05-13T13:45:36.081Z,41.60
2023-05-13T13:48:03.209Z,41.68
2023-05-13T13:50:30.061Z,42.76
2023-05-13T13:52:56.839Z,42.02
2023-05-13T13:55:24.054Z,41.80
2023-05-13T13:57:51.394Z,40.95
2023-05-13T14:00:18.504Z,42.77
2023-05-13T14:02:45.474Z,42.57
2023-05-13T14:05:13.716Z,41.77
2023-05-13T14:07:40.897Z,41.17
2023-05-13T14:10:08.658Z,40.06
2023-05-13T14:12:38.407Z,40.80
2023-05-13T14:15:06.478Z,42.50
2023-05-13T14:17:34.209Z,41.01
2023-05-13T14:20:01.402Z,41.49
2023-05-13T14:22:28.428Z,41.63
2023-05-13T14:24:55.268Z,43.34
2023-05-13T14:27:22.190Z,40.87
2023-05-13T14:29:49.274Z,43.96
2023-05-13T14:32:16.556Z,43.62
2023-05-13T14:34:43.547Z,43.22
2023-05-13T14:37:10.629Z,42.13
2023-05-13T14:39:37.397Z,42.54
2023-05-13T14:42:04.604Z,39.78
2023-05-13T14:44:32.073Z,39.86
2023-05-13T14:46:58.913Z,40.83
2023-05-13T14:49:25.738Z,41.25
2023-05-13T14:51:52.473Z,41.10
2023-05-13T14:54:19.216Z,42.54
2023-05-13T14:56:46.298Z,41.49
2023-05-13T14:59:13.354Z,42.66
2023-05-13T15:01:40.176Z,40.39
2023-05-13T15:04:06.934Z,41.04
2023-05-13T15:06:34.164Z,36.57
2023-05-13T15:09:00.892Z,38.10
2023-05-13T15:11:30.609Z,38.93
2023-05-13T15:13:57.456Z,38.75
2023-05-13T15:16:24.301Z,40.09
2023-05-13T15:18:51.111Z,40.62
2023-05-13T15:21:18.025Z,40.08
2023-05-13T15:23:44.934Z,39.43
2023-05-13T15:26:11.866Z,39.92
2023-05-13T15:28:38.687Z,39.00
2023-05-13T15:31:06.254Z,38.29
2023-05-13T15:33:33.311Z,38.06
2023-05-13T15:36:00.539Z,38.21
2023-05-13T15:38:27.751Z,38.46
2023-05-13T15:40:54.581Z,37.72
2023-05-13T15:43:21.359Z,39.40
2023-05-13T15:45:48.453Z,39.07
2023-05-13T15:48:15.366Z,39.25
2023-05-13T15:50:42.325Z,39.60
2023-05-13T15:53:09.034Z,40.54
2023-05-13T15:55:37.695Z,40.32
2023-05-13T15:58:04.705Z,40.58
2023-05-13T16:00:31.906Z,40.58
2023-05-13T16:02:58.690Z,40.54
2023-05-13T16:05:25.503Z,40.54
2023-05-13T16:07:52.266Z,41.39
2023-05-13T16:10:19.580Z,42.45
2023-05-13T16:12:46.356Z,44.34
2023-05-13T16:15:13.016Z,43.81
2023-05-13T16:17:39.872Z,43.76
2023-05-13T16:20:08.545Z,44.77
2023-05-13T16:22:38.399Z,46.12
2023-05-13T16:25:10.308Z,46.27
2023-05-13T16:27:37.881Z,47.04
2023-05-13T16:30:06.791Z,47.72
2023-05-13T16:32:35.328Z,47.51
2023-05-13T16:35:02.752Z,47.94
2023-05-13T16:37:29.882Z,47.64
2023-05-13T16:39:56.664Z,47.61
2023-05-13T16:42:23.822Z,47.75
2023-05-13T16:44:50.526Z,46.82
2023-05-13T16:47:17.522Z,48.60
2023-05-13T16:49:45.669Z,47.76
2023-05-13T16:52:12.468Z,47.67
2023-05-13T16:54:39.276Z,47.96
2023-05-13T16:57:06.220Z,47.64
2023-05-13T16:59:33.105Z,48.45
2023-05-13T17:02:00.107Z,48.09
2023-05-13T17:04:28.549Z,48.90
2023-05-13T17:06:57.414Z,48.75
2023-05-13T17:09:25.684Z,49.63
2023-05-13T17:11:52.556Z,49.97
2023-05-13T17:14:19.286Z,50.58
2023-05-13T17:16:46.071Z,51.05
2023-05-13T17:19:13.104Z,51.12
2023-05-13T17:21:39.873Z,51.74
2023-05-13T17:24:06.814Z,51.17
2023-05-13T17:26:36.028Z,50.37
2023-05-13T17:29:03.649Z,49.06
2023-05-13T17:31:30.428Z,49.05
2023-05-13T17:33:57.586Z,50.71
2023-05-13T17:36:24.385Z,49.72
2023-05-13T17:38:51.443Z,50.36
2023-05-13T17:41:18.461Z,50.36
2023-05-13T17:43:45.458Z,49.99
2023-05-13T17:46:12.241Z,51.20
2023-05-13T17:48:38.970Z,51.43
2023-05-13T17:51:05.925Z,52.00
2023-05-13T17:53:34.484Z,52.32
2023-05-13T17:56:01.794Z,53.06
2023-05-13T17:58:28.495Z,52.92
2023-05-13T18:00:55.269Z,53.77
2023-05-13T18:03:22.203Z,53.28
2023-05-13T18:05:49.042Z,53.51
2023-05-13T18:08:15.879Z,53.74
2023-05-13T18:10:42.571Z,55.43
2023-05-13T18:13:09.603Z,54.20
2023-05-13T18:15:36.792Z,55.36
2023-05-13T18:18:04.090Z,55.19
2023-05-13T18:20:31.976Z,54.67
2023-05-13T18:22:58.993Z,54.91
2023-05-13T18:25:25.967Z,55.48
2023-05-13T18:27:52.678Z,54.99
2023-05-13T18:30:19.398Z,54.82
2023-05-13T18:32:46.232Z,56.30
2023-05-13T18:35:13.041Z,57.36
2023-05-13T18:37:39.826Z,57.67
2023-05-13T18:40:07.495Z,58.00
2023-05-13T18:42:34.716Z,58.58
2023-05-13T18:45:01.397Z,59.32
2023-05-13T18:47:28.127Z,59.24
2023-05-13T18:49:54.905Z,59.64
2023-05-13T18:52:22.265Z,60.52
2023-05-13T18:54:52.620Z,61.27
2023-05-13T18:57:20.915Z,62.25
2023-05-13T18:59:48.240Z,62.38
2023-05-13T19:02:15.185Z,61.78
2023-05-13T19:04:42.024Z,63.06
2023-05-13T19:07:08.823Z,63.56
2023-05-13T19:09:36.337Z,63.95
2023-05-13T19:12:03.320Z,64.10
2023-05-13T19:14:30.043Z,64.71
2023-05-13T19:16:56.936Z,65.37
2023-05-13T19:19:24.584Z,65.75
2023-05-13T19:21:51.408Z,66.83
2023-05-13T19:24:18.893Z,66.39
2023-05-13T19:26:45.728Z,66.27
2023-05-13T19:29:12.479Z,66.28
2023-05-13T19:31:39.429Z,65.96
2023-05-13T19:34:07.918Z,66.64
2023-05-13T19:36:34.702Z,67.23
2023-05-13T19:39:01.885Z,67.47
2023-05-13T19:41:28.755Z,68.14
2023-05-13T19:43:55.734Z,68.61
2023-05-13T19:46:22.684Z,70.34
2023-05-13T19:48:49.779Z,71.01
2023-05-13T19:51:17.341Z,71.70
2023-05-13T19:53:44.986Z,71.79
2023-05-13T19:56:12.350Z,71.58
2023-05-13T19:58:39.229Z,72.53
2023-05-13T20:01:06.391Z,73.90
2023-05-13T20:03:33.317Z,73.89
2023-05-13T20:06:00.178Z,72.95
2023-05-13T20:08:28.739Z,73.53
2023-05-13T20:10:55.413Z,73.38
2023-05-13T20:13:22.088Z,73.77
2023-05-13T20:15:48.788Z,73.85
2023-05-13T20:18:15.651Z,73.83
2023-05-13T20:20:42.368Z,75.12
2023-05-13T20:23:09.399Z,76.07
2023-05-13T20:25:36.129Z,77.20
2023-05-13T20:28:03.053Z,77.84
2023-05-13T20:30:29.774Z,78.52
2023-05-13T20:32:56.592Z,79.49
2023-05-13T20:35:23.536Z,79.27
2023-05-13T20:37:50.233Z,80.88
2023-05-13T20:40:16.974Z,81.26
2023-05-13T20:42:43.780Z,81.15
2023-05-13T20:45:11.081Z,82.39
2023-05-13T20:47:37.821Z,82.68
2023-05-13T20:50:05.141Z,81.49
2023-05-13T20:52:31.905Z,82.47
2023-05-13T20:55:01.215Z,81.42
2023-05-13T20:57:28.014Z,81.33
2023-05-13T20:59:54.844Z,83.18
2023-05-13T21:02:21.705Z,82.99
2023-05-13T21:04:48.528Z,84.75
2023-05-13T21:07:15.402Z,86.91
2023-05-13T21:09:42.131Z,88.34
2023-05-13T21:12:09.235Z,87.58
2023-05-13T21:14:35.941Z,88.70
2023-05-13T21:17:03.755Z,87.28
2023-05-13T21:19:31.076Z,89.62
2023-05-13T21:21:58.807Z,90.35
2023-05-13T21:24:25.781Z,90.07
2023-05-13T21:26:52.707Z,91.40
2023-05-13T21:29:19.779Z,91.34
2023-05-13T21:31:47.672Z,89.35
2023-05-13T21:34:14.797Z,88.75
2023-05-13T21:36:41.499Z,87.90
2023-05-13T21:39:09.691Z,87.00
2023-05-13T21:41:36.630Z,86.35
2023-05-13T21:44:03.381Z,87.45
2023-05-13T21:46:30.503Z,87.64
2023-05-13T21:48:58.821Z,87.13
2023-05-13T21:51:25.838Z,87.93
2023-05-13T21:53:52.599Z,87.55
2023-05-13T21:56:19.538Z,87.97
2023-05-13T21:58:46.282Z,88.24
2023-05-13T22:01:13.094Z,88.22
2023-05-13T22:03:41.223Z,87.72
2023-05-13T22:06:08.340Z,87.93
2023-05-13T22:08:35.058Z,87.70
2023-05-13T22:11:01.991Z,86.71
2023-05-13T22:13:28.753Z,87.44
2023-05-13T22:15:55.553Z,87.28
2023-05-13T22:18:23.846Z,87.40
2023-05-13T22:20:51.322Z,87.44
2023-05-13T22:23:18.052Z,88.85
2023-05-13T22:25:44.950Z,90.18
2023-05-13T22:28:11.777Z,91.37
2023-05-13T22:30:38.498Z,92.70
2023-05-13T22:33:05.302Z,93.96
2023-05-13T22:35:36.540Z,93.33
2023-05-13T22:38:04.593Z,92.25
2023-05-13T22:40:31.406Z,91.92
2023-05-13T22:42:58.101Z,91.77
2023-05-13T22:45:24.825Z,92.13
2023-05-13T22:47:51.828Z,92.81
2023-05-13T22:50:18.704Z,93.72
2023-05-13T22:52:45.397Z,93.81
2023-05-13T22:55:12.118Z,92.85
2023-05-13T22:57:39.115Z,92.46
2023-05-13T23:00:07.449Z,92.11
2023-05-13T23:02:34.201Z,91.91
2023-05-13T23:05:01.061Z,91.72
2023-05-13T23:07:27.779Z,92.37
2023-05-13T23:09:54.618Z,92.49
2023-05-13T23:12:21.488Z,91.93
2023-05-13T23:14:48.217Z,92.56
2023-05-13T23:17:15.002Z,92.86
2023-05-13T23:19:41.928Z,93.02
2023-05-13T23:22:08.712Z,94.21
2023-05-13T23:24:35.594Z,94.81
2023-05-13T23:27:02.436Z,94.14
2023-05-13T23:29:29.238Z,93.73
2023-05-13T23:31:56.082Z,93.90
2023-05-13T23:34:22.900Z,94.84
2023-05-13T23:36:49.633Z,94.74
2023-05-13T23:39:16.360Z,94.39
2023-05-13T23:41:43.072Z,94.79
2023-05-13T23:44:09.891Z,94.98
2023-05-13T23:46:36.663Z,95.36
2023-05-13T23:49:03.471Z,95.57
2023-05-13T23:51:30.592Z,95.65
2023-05-13T23:53:57.300Z,96.17
2023-05-13T23:56:24.111Z,96.20
2023-05-13T23:58:51.081Z,96.83
